createdAt,value
2022-07-29T00:00:06.940Z,68.33
2022-07-29T00:03:11.626Z,67.50
2022-07-29T00:06:17.288Z,67.24
2022-07-29T00:09:21.866Z,68.53
2022-07-29T00:12:27.545Z,68.95
2022-07-29T00:15:34.749Z,68.62
2022-07-29T00:18:39.509Z,67.83
2022-07-29T00:21:44.301Z,68.71
2022-07-29T00:24:51.985Z,67.79
2022-07-29T00:27:56.821Z,68.05
2022-07-29T00:31:01.066Z,68.42
2022-07-29T00:34:05.760Z,69.03
2022-07-29T00:37:10.554Z,68.29
2022-07-29T00:40:15.153Z,67.83
2022-07-29T00:43:20.183Z,67.65
2022-07-29T00:46:24.579Z,67.45
2022-07-29T00:49:29.417Z,67.34
2022-07-29T00:52:33.857Z,67.38
2022-07-29T00:55:38.811Z,67.37
2022-07-29T00:58:43.210Z,67.69
2022-07-29T01:01:47.958Z,67.57
2022-07-29T01:04:53.100Z,68.38
2022-07-29T01:07:59.983Z,67.61
2022-07-29T01:11:05.157Z,67.92
2022-07-29T01:14:11.049Z,67.42
2022-07-29T01:17:33.877Z,67.08
2022-07-29T01:21:17.988Z,66.30
2022-07-29T01:24:22.588Z,66.09
2022-07-29T01:27:45.798Z,65.30
2022-07-29T01:30:53.788Z,64.91
2022-07-29T01:34:03.613Z,66.24
2022-07-29T01:37:31.372Z,64.62
2022-07-29T01:40:38.294Z,65.00
2022-07-29T01:43:58.369Z,64.94
2022-07-29T01:47:08.343Z,62.50
2022-07-29T01:50:18.411Z,62.00
2022-07-29T01:53:55.148Z,61.42
2022-07-29T01:57:02.120Z,62.92
2022-07-29T02:00:07.981Z,61.87
2022-07-29T02:03:20.935Z,62.46
2022-07-29T02:06:27.807Z,61.30
2022-07-29T02:09:34.051Z,60.33
2022-07-29T02:12:40.219Z,57.67
2022-07-29T02:16:09.458Z,56.87
2022-07-29T02:19:16.405Z,56.92
2022-07-29T02:22:22.036Z,56.26
2022-07-29T02:25:38.043Z,55.34
2022-07-29T02:28:43.533Z,55.95
2022-07-29T02:31:50.417Z,56.16
2022-07-29T02:34:56.123Z,55.56
2022-07-29T02:38:19.290Z,55.28
2022-07-29T02:41:31.959Z,54.71
2022-07-29T02:44:36.851Z,54.74
2022-07-29T02:47:46.836Z,55.13
2022-07-29T02:51:03.920Z,55.66
2022-07-29T02:54:12.911Z,53.89
2022-07-29T02:57:30.362Z,52.90
2022-07-29T03:00:39.859Z,54.61
2022-07-29T03:03:47.021Z,54.93
2022-07-29T03:06:55.120Z,54.31
2022-07-29T03:10:01.232Z,55.19
2022-07-29T03:13:09.703Z,54.75
2022-07-29T03:16:15.922Z,55.14
2022-07-29T03:19:22.087Z,54.12
2022-07-29T03:22:27.346Z,55.55
2022-07-29T03:25:32.185Z,55.23
2022-07-29T03:28:36.786Z,53.64
2022-07-29T03:31:41.569Z,54.47
2022-07-29T03:34:48.417Z,54.96
2022-07-29T03:37:52.607Z,54.90
2022-07-29T03:41:03.481Z,54.82
2022-07-29T03:44:10.311Z,54.62
2022-07-29T03:47:17.290Z,55.71
2022-07-29T03:50:24.346Z,55.11
2022-07-29T03:53:28.987Z,55.73
2022-07-29T03:56:35.124Z,55.73
2022-07-29T03:59:41.158Z,54.78
2022-07-29T04:02:52.937Z,56.92
2022-07-29T04:06:02.029Z,56.41
2022-07-29T04:09:06.716Z,56.94
2022-07-29T04:12:14.572Z,55.67
2022-07-29T04:15:18.851Z,56.94
2022-07-29T04:18:23.866Z,55.74
2022-07-29T04:21:28.599Z,56.03
2022-07-29T04:24:33.130Z,56.47
2022-07-29T04:27:37.830Z,56.50
2022-07-29T04:30:42.355Z,55.33
2022-07-29T04:33:47.012Z,55.91
2022-07-29T04:36:51.475Z,55.35
2022-07-29T04:39:56.366Z,56.25
2022-07-29T04:43:06.103Z,57.15
2022-07-29T04:46:10.769Z,57.73
2022-07-29T04:49:15.684Z,57.46
2022-07-29T04:52:20.508Z,57.81
2022-07-29T04:55:25.064Z,56.72
2022-07-29T04:58:30.713Z,56.86
2022-07-29T05:01:35.453Z,57.93
2022-07-29T05:04:40.306Z,57.44
2022-07-29T05:07:44.937Z,57.02
2022-07-29T05:10:49.760Z,56.18
2022-07-29T05:13:54.345Z,57.23
2022-07-29T05:16:59.052Z,57.30
2022-07-29T05:20:03.718Z,55.95
2022-07-29T05:23:08.025Z,57.92
2022-07-29T05:26:13.884Z,58.20
2022-07-29T05:29:43.925Z,58.22
2022-07-29T05:32:43.375Z,57.08
2022-07-29T05:35:50.649Z,56.34
2022-07-29T05:38:55.299Z,55.74
2022-07-29T05:41:59.469Z,57.91
2022-07-29T05:45:04.982Z,57.54
2022-07-29T05:48:09.646Z,57.50
2022-07-29T05:51:14.689Z,56.64
2022-07-29T05:54:19.358Z,57.56
2022-07-29T05:57:24.833Z,57.51
2022-07-29T06:00:29.963Z,56.92
2022-07-29T06:03:34.709Z,55.10
2022-07-29T06:06:39.554Z,55.98
2022-07-29T06:09:44.627Z,56.02
2022-07-29T06:12:50.322Z,56.91
2022-07-29T06:15:54.990Z,57.25
2022-07-29T06:18:59.334Z,58.09
2022-07-29T06:22:04.005Z,57.50
2022-07-29T06:25:09.659Z,56.88
2022-07-29T06:28:15.801Z,56.66
2022-07-29T06:31:20.703Z,56.77
2022-07-29T06:34:25.594Z,57.60
2022-07-29T06:37:30.392Z,57.12
2022-07-29T06:40:55.972Z,57.96
2022-07-29T06:44:01.087Z,59.81
2022-07-29T06:47:05.650Z,60.02
2022-07-29T06:50:13.643Z,60.61
2022-07-29T06:53:19.409Z,60.88
2022-07-29T06:56:24.181Z,60.68
2022-07-29T06:59:35.040Z,60.98
2022-07-29T07:02:40.141Z,59.52
2022-07-29T07:05:44.620Z,61.86
2022-07-29T07:08:49.256Z,60.99
2022-07-29T07:11:54.030Z,61.14
2022-07-29T07:14:58.480Z,60.84
2022-07-29T07:18:02.916Z,61.81
2022-07-29T07:21:07.711Z,63.15
2022-07-29T07:24:12.585Z,62.04
2022-07-29T07:27:17.515Z,62.35
2022-07-29T07:30:22.766Z,62.41
2022-07-29T07:33:27.473Z,63.17
2022-07-29T07:36:31.877Z,63.13
2022-07-29T07:39:36.593Z,63.20
2022-07-29T07:42:41.339Z,63.36
2022-07-29T07:45:47.773Z,62.47
2022-07-29T07:48:54.191Z,63.15
2022-07-29T07:51:59.149Z,63.00
2022-07-29T07:55:03.737Z,63.56
2022-07-29T07:58:08.290Z,63.28
2022-07-29T08:01:12.995Z,63.97
2022-07-29T08:04:20.902Z,63.46
2022-07-29T08:07:28.251Z,63.77
2022-07-29T08:10:51.322Z,64.52
2022-07-29T08:13:55.894Z,65.15
2022-07-29T08:17:00.713Z,65.02
2022-07-29T08:20:06.667Z,64.66
2022-07-29T08:23:11.551Z,64.81
2022-07-29T08:26:16.355Z,64.99
2022-07-29T08:29:21.028Z,64.55
2022-07-29T08:32:50.791Z,63.86
2022-07-29T08:35:51.931Z,63.81
2022-07-29T08:38:56.651Z,63.04
2022-07-29T08:42:02.094Z,63.08
2022-07-29T08:45:07.921Z,63.39
2022-07-29T08:51:59.417Z,64.49
2022-07-29T08:55:05.348Z,64.56
2022-07-29T08:58:11.039Z,64.91
2022-07-29T09:01:35.929Z,64.92
2022-07-29T09:04:41.026Z,65.36
2022-07-29T09:07:49.641Z,65.07
2022-07-29T09:10:55.139Z,64.81
2022-07-29T09:13:59.465Z,64.67
2022-07-29T09:17:04.276Z,64.79
2022-07-29T09:20:19.135Z,64.69
2022-07-29T09:23:25.111Z,65.06
2022-07-29T09:26:33.721Z,64.73
2022-07-29T09:29:40.835Z,63.91
2022-07-29T09:33:05.521Z,64.23
2022-07-29T09:36:11.613Z,64.86
2022-07-29T09:39:17.831Z,64.65
2022-07-29T09:42:34.730Z,65.05
2022-07-29T09:45:40.002Z,65.49
2022-07-29T09:48:45.436Z,65.83
2022-07-29T09:51:50.297Z,66.42
2022-07-29T09:54:55.965Z,67.02
2022-07-29T09:58:23.537Z,67.93
2022-07-29T10:01:31.658Z,69.45
2022-07-29T10:04:43.602Z,70.14
2022-07-29T10:07:57.259Z,70.87
2022-07-29T10:11:16.256Z,71.75
2022-07-29T10:14:20.864Z,71.57
2022-07-29T10:17:25.371Z,71.50
2022-07-29T10:20:30.072Z,71.65
2022-07-29T10:23:47.075Z,71.84
2022-07-29T10:26:52.297Z,72.05
2022-07-29T10:29:57.054Z,71.94
2022-07-29T10:33:40.693Z,72.12
2022-07-29T10:37:10.781Z,73.90
2022-07-29T10:40:45.218Z,74.04
2022-07-29T10:43:52.222Z,74.53
2022-07-29T10:46:57.452Z,74.37
2022-07-29T10:50:06.998Z,74.56
2022-07-29T10:53:11.179Z,74.90
2022-07-29T10:56:29.988Z,74.15
2022-07-29T10:59:36.288Z,73.56
2022-07-29T11:02:43.546Z,74.23
2022-07-29T11:05:59.538Z,75.17
2022-07-29T11:09:37.682Z,76.68
2022-07-29T11:12:45.957Z,76.44
2022-07-29T11:16:00.546Z,75.89
2022-07-29T11:19:14.644Z,75.78
2022-07-29T11:22:35.871Z,76.57
2022-07-29T11:29:26.584Z,76.47
2022-07-29T11:32:44.933Z,77.89
2022-07-29T11:36:16.959Z,77.82
2022-07-29T11:39:36.917Z,78.16
2022-07-29T11:42:44.454Z,77.97
2022-07-29T11:45:49.167Z,77.76
2022-07-29T11:48:54.555Z,78.21
2022-07-29T11:52:03.285Z,77.83
2022-07-29T11:55:09.937Z,78.04
2022-07-29T11:58:15.277Z,77.79
2022-07-29T12:01:20.315Z,77.21
2022-07-29T12:04:25.415Z,77.15
2022-07-29T12:07:35.882Z,77.16
2022-07-29T12:10:40.861Z,77.27
2022-07-29T12:13:46.026Z,77.14
2022-07-29T12:16:53.999Z,77.00
2022-07-29T12:20:02.431Z,76.95
2022-07-29T12:23:09.917Z,76.86
2022-07-29T12:26:25.313Z,77.01
2022-07-29T12:29:35.137Z,77.31
2022-07-29T12:32:43.442Z,76.85
2022-07-29T12:36:06.240Z,76.74
2022-07-29T12:39:13.552Z,76.72
2022-07-29T12:42:19.877Z,76.49
2022-07-29T12:45:31.449Z,76.55
2022-07-29T12:48:40.826Z,76.15
2022-07-29T12:51:45.330Z,76.27
2022-07-29T12:54:50.186Z,75.93
2022-07-29T12:57:56.190Z,75.84
2022-07-29T13:01:19.016Z,76.36
2022-07-29T13:04:28.897Z,76.14
2022-07-29T13:07:54.595Z,76.24
2022-07-29T13:11:01.968Z,76.64
2022-07-29T13:14:07.153Z,76.73
2022-07-29T13:17:15.879Z,76.91
2022-07-29T13:20:20.858Z,76.92
2022-07-29T13:23:24.980Z,78.02
2022-07-29T13:26:29.597Z,77.62
2022-07-29T13:29:34.216Z,77.50
2022-07-29T13:32:39.544Z,78.32
2022-07-29T13:35:43.512Z,77.49
2022-07-29T13:38:48.134Z,77.95
2022-07-29T13:41:52.409Z,77.87
2022-07-29T13:44:56.836Z,78.38
2022-07-29T13:48:01.094Z,78.09
2022-07-29T13:51:05.762Z,78.31
2022-07-29T13:54:10.020Z,78.54
2022-07-29T13:57:15.618Z,79.06
2022-07-29T14:00:21.036Z,79.09
2022-07-29T14:03:26.336Z,79.59
2022-07-29T14:06:31.359Z,79.82
2022-07-29T14:09:41.038Z,81.01
2022-07-29T14:12:45.963Z,80.81
2022-07-29T14:15:50.425Z,80.10
2022-07-29T14:18:54.887Z,80.29
2022-07-29T14:21:59.307Z,81.03
2022-07-29T14:25:08.695Z,80.96
2022-07-29T14:28:19.420Z,81.14
2022-07-29T14:31:24.032Z,81.50
2022-07-29T14:34:28.145Z,81.35
2022-07-29T14:37:39.897Z,81.37
2022-07-29T14:40:44.832Z,81.09
2022-07-29T14:43:49.253Z,81.18
2022-07-29T14:46:53.537Z,81.25
2022-07-29T14:49:57.883Z,81.29
2022-07-29T14:53:02.755Z,81.62
2022-07-29T14:56:34.277Z,82.83
2022-07-29T14:59:31.612Z,81.11
2022-07-29T15:03:00.488Z,81.60
2022-07-29T15:06:00.494Z,81.64
2022-07-29T15:09:05.723Z,82.14
2022-07-29T15:12:12.258Z,82.10
2022-07-29T15:15:16.772Z,82.16
2022-07-29T15:18:25.747Z,82.41
2022-07-29T15:21:30.392Z,82.46
2022-07-29T15:24:34.929Z,82.24
2022-07-29T15:27:39.095Z,82.50
2022-07-29T15:30:43.723Z,82.69
2022-07-29T15:33:48.060Z,83.00
2022-07-29T15:36:53.739Z,83.10
2022-07-29T15:40:00.081Z,82.50
2022-07-29T15:43:10.256Z,82.82
2022-07-29T15:46:37.801Z,82.84
2022-07-29T15:49:48.531Z,82.57
2022-07-29T15:52:53.529Z,81.65
2022-07-29T15:55:57.799Z,81.20
2022-07-29T15:59:02.431Z,81.17
2022-07-29T16:02:06.898Z,81.46
2022-07-29T16:05:11.621Z,81.45
2022-07-29T16:08:15.693Z,81.95
2022-07-29T16:11:19.853Z,81.45
2022-07-29T16:14:24.388Z,81.53
2022-07-29T16:17:32.521Z,80.98
2022-07-29T16:20:37.337Z,80.25
2022-07-29T16:23:42.489Z,80.79
2022-07-29T16:26:46.817Z,81.58
2022-07-29T16:29:51.354Z,81.09
2022-07-29T16:32:55.606Z,81.58
2022-07-29T16:35:59.742Z,81.15
2022-07-29T16:39:06.556Z,81.11
2022-07-29T16:42:21.239Z,81.48
2022-07-29T16:45:45.812Z,81.02
2022-07-29T16:48:50.618Z,81.36
2022-07-29T16:51:55.603Z,81.25
2022-07-29T16:54:59.452Z,81.23
2022-07-29T16:58:03.571Z,81.61
2022-07-29T17:01:07.961Z,81.54
2022-07-29T17:04:15.729Z,81.07
2022-07-29T17:07:20.215Z,80.68
2022-07-29T17:10:25.431Z,80.07
2022-07-29T17:13:32.090Z,79.44
2022-07-29T17:16:36.609Z,79.51
2022-07-29T17:19:41.283Z,80.01
2022-07-29T17:22:45.409Z,80.27
2022-07-29T17:25:50.072Z,80.12
2022-07-29T17:28:54.604Z,80.33
2022-07-29T17:32:00.455Z,80.28
2022-07-29T17:35:24.797Z,79.62
2022-07-29T17:38:29.113Z,79.57
2022-07-29T17:41:33.709Z,80.37
2022-07-29T17:44:38.716Z,79.83
2022-07-29T17:47:42.936Z,80.13
2022-07-29T17:50:48.802Z,79.99
2022-07-29T17:53:53.588Z,80.18
2022-07-29T17:56:58.016Z,80.09
2022-07-29T18:00:02.375Z,79.60
2022-07-29T18:03:08.428Z,80.08
2022-07-29T18:06:13.084Z,79.85
2022-07-29T18:09:17.190Z,80.22
2022-07-29T18:12:21.620Z,80.40
2022-07-29T18:15:26.015Z,79.21
2022-07-29T18:18:30.363Z,79.29
2022-07-29T18:21:43.350Z,79.57
2022-07-29T18:24:56.705Z,80.44
2022-07-29T18:28:01.164Z,80.60
2022-07-29T18:31:06.012Z,80.76
2022-07-29T18:34:10.688Z,81.00
2022-07-29T18:37:14.714Z,81.41
2022-07-29T18:40:21.550Z,81.33
2022-07-29T18:43:25.859Z,80.85
2022-07-29T18:46:30.126Z,81.37
2022-07-29T18:49:34.763Z,80.61
2022-07-29T18:52:39.111Z,81.83
2022-07-29T18:55:43.144Z,82.33
2022-07-29T18:58:47.910Z,82.92
2022-07-29T19:01:52.505Z,83.66
2022-07-29T19:04:57.599Z,83.11
2022-07-29T19:08:01.650Z,84.03
2022-07-29T19:11:06.601Z,83.34
2022-07-29T19:14:11.208Z,83.61
2022-07-29T19:17:15.609Z,83.92
2022-07-29T19:20:19.982Z,83.90
2022-07-29T19:23:24.237Z,83.62
2022-07-29T19:26:28.432Z,84.00
2022-07-29T19:29:33.762Z,84.11
2022-07-29T19:32:38.410Z,85.25
2022-07-29T19:35:42.664Z,84.75
2022-07-29T19:38:46.885Z,84.86
2022-07-29T19:41:51.161Z,84.82
2022-07-29T19:45:03.154Z,84.69
2022-07-29T19:48:07.895Z,84.85
2022-07-29T19:51:12.218Z,85.75
2022-07-29T19:54:18.966Z,85.56
2022-07-29T19:57:24.108Z,85.57
2022-07-29T20:00:28.414Z,85.84
2022-07-29T20:03:34.646Z,85.43
2022-07-29T20:06:38.771Z,86.11
2022-07-29T20:09:43.504Z,85.75
2022-07-29T20:12:47.880Z,85.77
2022-07-29T20:15:56.792Z,85.88
2022-07-29T20:19:00.900Z,85.75
2022-07-29T20:22:05.079Z,85.95
2022-07-29T20:25:12.721Z,85.58
2022-07-29T20:28:16.901Z,85.96
2022-07-29T20:31:21.462Z,86.25
2022-07-29T20:34:25.908Z,86.50
2022-07-29T20:37:30.108Z,86.82
2022-07-29T20:40:36.654Z,86.19
2022-07-29T20:43:40.617Z,86.49
2022-07-29T20:46:45.068Z,86.25
2022-07-29T20:49:49.608Z,86.53
2022-07-29T20:52:54.556Z,87.28
2022-07-29T20:55:58.821Z,86.83
2022-07-29T20:59:03.605Z,86.48
2022-07-29T21:02:07.751Z,85.82
2022-07-29T21:05:14.310Z,86.10
2022-07-29T21:08:18.570Z,85.67
2022-07-29T21:11:43.174Z,85.65
2022-07-29T21:14:50.348Z,85.26
2022-07-29T21:18:01.509Z,85.21
2022-07-29T21:21:06.589Z,84.87
2022-07-29T21:24:12.099Z,85.53
2022-07-29T21:27:35.287Z,84.67
2022-07-29T21:30:42.960Z,84.59
2022-07-29T21:33:48.268Z,84.97
2022-07-29T21:36:52.964Z,84.85
2022-07-29T21:39:57.179Z,84.83
2022-07-29T21:43:01.613Z,85.06
2022-07-29T21:46:06.152Z,85.21
2022-07-29T21:49:10.860Z,84.92
2022-07-29T21:52:15.923Z,84.79
2022-07-29T21:55:22.457Z,85.06
2022-07-29T21:58:28.993Z,84.98
2022-07-29T22:01:39.153Z,84.74
2022-07-29T22:04:43.863Z,84.21
2022-07-29T22:07:56.208Z,83.65
2022-07-29T22:11:01.362Z,83.73
2022-07-29T22:14:08.039Z,83.87
2022-07-29T22:17:12.275Z,83.74
2022-07-29T22:20:16.365Z,83.34
2022-07-29T22:23:20.788Z,82.78
2022-07-29T22:26:25.429Z,82.60
2022-07-29T22:29:29.865Z,82.01
2022-07-29T22:32:34.616Z,82.23
2022-07-29T22:35:39.463Z,82.29
2022-07-29T22:38:43.745Z,82.19
2022-07-29T22:41:48.533Z,81.21
2022-07-29T22:44:52.490Z,80.43
2022-07-29T22:47:59.355Z,79.23
2022-07-29T22:51:04.233Z,78.76
2022-07-29T22:54:09.023Z,77.81
2022-07-29T22:57:13.351Z,79.07
2022-07-29T23:00:17.728Z,78.81
2022-07-29T23:03:22.833Z,78.84
2022-07-29T23:06:27.041Z,79.13
2022-07-29T23:09:31.329Z,77.93
2022-07-29T23:12:36.102Z,77.17
2022-07-29T23:15:40.506Z,77.41
2022-07-29T23:18:45.379Z,77.47
2022-07-29T23:21:49.552Z,77.14
2022-07-29T23:24:54.010Z,77.57
2022-07-29T23:27:58.190Z,77.39
2022-07-29T23:31:02.916Z,76.56
2022-07-29T23:34:07.067Z,76.30
2022-07-29T23:37:11.606Z,76.64
2022-07-29T23:40:16.445Z,76.45
2022-07-29T23:43:20.877Z,75.95
2022-07-29T23:46:25.515Z,76.49
2022-07-29T23:49:29.810Z,75.51
2022-07-29T23:52:34.175Z,73.97
2022-07-29T23:55:40.339Z,72.31
2022-07-29T23:58:44.888Z,73.33
